Pagrindinis puslapis
METAR-TAF:

METAR-TAF

Oro uostai :

Nueces County Airport

Robstown, Teksasas, Jungtinės Amerikos Valstijos

platuma: 27-46-42N, ilguma: 097-41-25W, Aukštis: 24 m

Dabartinis oras

Ataskaita buvo paskelbta 23 minutes, ne 07:15 UTC
Vėjas 3 kt iš Pietų/Pietvakarių
Temperatūra 22°C
Drėgmė 88%
Slėgis 1013 hPa
Matomumas: 16.1 km
Giedras dangus

METAR: KRBO 270715Z AUTO 21003KT 10SM CLR 22/20 A2992 RMK AO2 T02200196

Laikas: 02:38 (07:38 UTC)


TAF: trūkstamas

Orai ataskaitas ir orų prognozės (METAR, TAF).

turimą stotys yra geltonos ir raudonos taškus žemėlapyje.

Perkelti pele per norėdami pamatyti stoties vardą.

Tada spustelėkite, norėdami matyti oro stebėjimo ir prognozės.

Norėdami pakeisti žemėlapį: spustelėkite ant žalios mygtukų su juodo kryžiaus žemyn,; žalią mygtuką su brūkšneliu, jei norite nutolinti; arba žalių rodyklių gretimoms žemėlapius.


METAR-TAF: